createdAt,value
2019-01-03T00:02:20.970Z,7.95
2019-01-03T00:05:10.378Z,11.97
2019-01-03T00:07:58.520Z,5.10
2019-01-03T00:10:47.834Z,5.90
2019-01-03T00:13:35.060Z,6.80
2019-01-03T00:16:24.507Z,9.20
2019-01-03T00:19:16.021Z,3.95
2019-01-03T00:22:04.367Z,9.15
2019-01-03T00:24:53.681Z,7.55
2019-01-03T00:27:41.706Z,9.70
2019-01-03T00:30:29.709Z,5.55
2019-01-03T00:33:18.365Z,6.65
2019-01-03T00:36:17.538Z,8.65
2019-01-03T00:39:05.473Z,9.08
2019-01-03T00:42:00.817Z,3.45
2019-01-03T00:44:50.121Z,5.25
2019-01-03T00:47:38.346Z,6.45
2019-01-03T00:50:28.103Z,9.00
2019-01-03T00:53:11.819Z,7.33
2019-01-03T00:56:04.089Z,13.62
2019-01-03T00:59:05.523Z,3.62
2019-01-03T01:02:04.166Z,9.10
2019-01-03T01:05:11.529Z,8.43
2019-01-03T01:07:59.426Z,10.10
2019-01-03T01:10:57.040Z,8.93
2019-01-03T01:13:58.645Z,4.67
2019-01-03T01:16:41.782Z,5.60
2019-01-03T01:19:30.004Z,9.78
2019-01-03T01:22:25.260Z,4.75
2019-01-03T01:25:13.437Z,7.72
2019-01-03T01:28:11.946Z,4.55
2019-01-03T01:31:13.318Z,8.05
2019-01-03T01:34:17.781Z,11.75
2019-01-03T01:37:07.109Z,4.65
2019-01-03T01:39:55.031Z,10.85
2019-01-03T01:42:53.578Z,7.40
2019-01-03T01:45:42.874Z,7.33
2019-01-03T01:48:38.490Z,7.75
2019-01-03T01:51:26.699Z,7.37
2019-01-03T01:54:09.753Z,7.40
2019-01-03T01:56:58.005Z,4.72
2019-01-03T01:59:46.236Z,7.42
2019-01-03T02:02:34.163Z,5.50
2019-01-03T02:05:22.376Z,5.10
2019-01-03T02:08:10.561Z,9.58
2019-01-03T02:10:59.908Z,10.48
2019-01-03T02:13:49.208Z,8.68
2019-01-03T02:17:16.145Z,8.00
2019-01-03T02:20:00.887Z,8.00
2019-01-03T02:22:59.429Z,10.88
2019-01-03T02:26:00.909Z,9.45
2019-01-03T02:28:50.229Z,7.85
2019-01-03T02:31:42.538Z,8.98
2019-01-03T02:34:30.815Z,6.95
2019-01-03T02:37:29.360Z,7.42
2019-01-03T02:40:17.481Z,5.78
2019-01-03T02:43:12.856Z,9.88
2019-01-03T02:46:17.253Z,10.43
2019-01-03T02:49:13.612Z,6.00
2019-01-03T02:52:06.464Z,9.85
2019-01-03T02:54:58.849Z,3.35
2019-01-03T02:58:00.290Z,5.95
2019-01-03T03:00:51.793Z,9.38
2019-01-03T03:03:34.409Z,6.33
2019-01-03T03:06:30.309Z,4.15
2019-01-03T03:09:18.322Z,9.58
2019-01-03T03:12:07.609Z,7.00
2019-01-03T03:14:54.450Z,4.33
2019-01-03T03:17:42.361Z,5.55
2019-01-03T03:20:23.363Z,3.08
2019-01-03T03:23:11.257Z,7.08
2019-01-03T03:26:18.621Z,9.93
2019-01-03T03:29:08.011Z,2.35
2019-01-03T03:32:06.663Z,8.10
2019-01-03T03:34:59.107Z,7.25
2019-01-03T03:37:57.270Z,5.00
2019-01-03T03:40:45.474Z,12.93
2019-01-03T03:43:49.955Z,5.15
2019-01-03T03:46:39.272Z,16.17
2019-01-03T03:49:23.276Z,14.35
2019-01-03T03:52:15.623Z,16.77
2019-01-03T03:55:04.976Z,7.65
2019-01-03T03:57:58.057Z,7.95
2019-01-03T04:00:45.962Z,11.55
2019-01-03T04:03:35.282Z,11.10
2019-01-03T04:06:43.047Z,7.33
2019-01-03T04:09:50.469Z,4.40
2019-01-03T04:12:45.394Z,9.35
2019-01-03T04:15:43.478Z,4.42
2019-01-03T04:18:50.956Z,11.05
2019-01-03T04:21:40.319Z,5.03
2019-01-03T04:24:32.262Z,6.40
2019-01-03T04:27:20.411Z,4.95
2019-01-03T04:30:12.776Z,6.33
2019-01-03T04:33:02.108Z,5.28
2019-01-03T04:35:57.587Z,8.70
2019-01-03T04:38:49.751Z,6.97
2019-01-03T04:41:39.141Z,2.75
2019-01-03T04:44:24.903Z,7.85
2019-01-03T04:47:12.993Z,8.05
2019-01-03T04:50:05.810Z,7.20
2019-01-03T04:53:01.394Z,6.90
2019-01-03T04:55:49.537Z,4.58
2019-01-03T04:58:41.997Z,8.83
2019-01-03T05:02:24.130Z,8.03
2019-01-03T05:05:19.339Z,4.37
2019-01-03T05:08:23.795Z,4.35
2019-01-03T05:11:12.047Z,3.22
2019-01-03T05:14:10.639Z,4.60
2019-01-03T05:17:08.877Z,4.85
2019-01-03T05:19:57.664Z,4.00
2019-01-03T05:22:44.692Z,6.55
2019-01-03T05:25:44.001Z,5.78
2019-01-03T05:28:33.319Z,5.35
2019-01-03T05:31:21.225Z,5.90
2019-01-03T05:34:09.430Z,5.45
2019-01-03T05:37:04.647Z,3.52
2019-01-03T05:39:52.563Z,7.03
2019-01-03T05:42:41.023Z,8.93
2019-01-03T05:45:45.455Z,11.20
2019-01-03T05:48:35.326Z,4.45
2019-01-03T05:51:30.691Z,7.15
2019-01-03T05:54:18.813Z,4.62
2019-01-03T05:57:10.209Z,7.58
2019-01-03T06:00:02.364Z,5.78
2019-01-03T06:03:07.095Z,5.67
2019-01-03T06:05:57.279Z,3.92
2019-01-03T06:08:41.733Z,6.08
2019-01-03T06:11:25.700Z,4.42
2019-01-03T06:14:24.208Z,9.03
2019-01-03T06:17:02.065Z,7.58
2019-01-03T06:19:55.450Z,9.15
2019-01-03T06:22:57.106Z,3.33
2019-01-03T06:25:55.330Z,2.90
2019-01-03T06:28:43.619Z,3.77
2019-01-03T06:31:38.728Z,7.17
2019-01-03T06:34:34.350Z,5.42
2019-01-03T06:37:24.970Z,2.15
2019-01-03T06:40:12.989Z,4.80
2019-01-03T06:43:08.455Z,3.30
2019-01-03T06:45:56.547Z,7.45
2019-01-03T06:48:48.664Z,8.30
2019-01-03T06:51:31.794Z,3.45
2019-01-03T06:54:23.879Z,3.87
2019-01-03T06:57:16.904Z,3.25
2019-01-03T07:00:07.003Z,4.95
2019-01-03T07:02:54.928Z,6.03
2019-01-03T07:05:53.330Z,3.27
2019-01-03T07:08:41.303Z,3.05
2019-01-03T07:11:42.559Z,6.00
2019-01-03T07:14:30.710Z,2.30
2019-01-03T07:17:15.716Z,3.75
2019-01-03T07:20:03.876Z,2.25
2019-01-03T07:23:11.366Z,2.55
2019-01-03T07:25:59.407Z,2.60
2019-01-03T07:28:49.611Z,2.95
2019-01-03T07:31:44.993Z,4.55
2019-01-03T07:34:46.639Z,3.72
2019-01-03T07:37:54.310Z,6.90
2019-01-03T07:40:58.770Z,2.55
2019-01-03T07:43:46.827Z,3.67
2019-01-03T07:46:34.820Z,4.37
2019-01-03T07:49:22.809Z,9.45
2019-01-03T07:52:12.142Z,3.62
2019-01-03T07:55:17.155Z,9.68
2019-01-03T07:58:05.454Z,5.00
2019-01-03T08:00:53.315Z,2.95
2019-01-03T08:03:41.569Z,3.42
2019-01-03T08:06:33.646Z,4.70
2019-01-03T08:09:42.406Z,2.90
2019-01-03T08:12:30.689Z,3.87
2019-01-03T08:15:35.177Z,3.58
2019-01-03T08:18:30.515Z,2.20
2019-01-03T08:21:19.904Z,4.83
2019-01-03T08:24:15.250Z,4.20
2019-01-03T08:27:13.418Z,1.82
2019-01-03T08:30:00.085Z,5.95
2019-01-03T08:32:48.342Z,5.15
2019-01-03T08:35:38.417Z,2.85
2019-01-03T08:38:27.126Z,2.37
2019-01-03T08:41:29.794Z,2.70
2019-01-03T08:44:31.334Z,3.58
2019-01-03T08:47:21.521Z,5.85
2019-01-03T08:50:09.744Z,4.65
2019-01-03T08:52:59.169Z,3.27
2019-01-03T08:55:47.440Z,2.45
2019-01-03T08:58:39.801Z,8.60
2019-01-03T09:01:27.862Z,3.30
2019-01-03T09:04:15.882Z,6.05
2019-01-03T09:07:04.339Z,3.30
2019-01-03T09:09:52.362Z,5.60
2019-01-03T09:12:43.316Z,6.75
2019-01-03T09:15:31.574Z,6.65
2019-01-03T09:18:33.077Z,2.37
2019-01-03T09:21:40.771Z,3.02
2019-01-03T09:24:36.204Z,2.37
2019-01-03T09:27:25.609Z,1.42
2019-01-03T09:30:08.943Z,1.30
2019-01-03T09:32:49.114Z,3.05
2019-01-03T09:35:50.683Z,2.92
2019-01-03T09:38:45.866Z,4.75
2019-01-03T09:41:35.181Z,3.85
2019-01-03T09:44:23.447Z,4.15
2019-01-03T09:46:53.839Z,1.92
2019-01-03T09:49:24.239Z,4.12
2019-01-03T09:51:54.628Z,3.20
2019-01-03T09:54:25.018Z,5.05
2019-01-03T09:56:55.442Z,5.58
2019-01-03T09:59:25.839Z,2.80
2019-01-03T10:01:56.346Z,6.50
2019-01-03T10:04:26.728Z,4.83
2019-01-03T10:06:57.093Z,3.00
2019-01-03T10:09:27.479Z,6.22
2019-01-03T10:11:57.854Z,3.55
2019-01-03T10:14:28.239Z,3.33
2019-01-03T10:16:58.619Z,1.20
2019-01-03T10:19:28.991Z,4.12
2019-01-03T10:21:59.353Z,2.98
2019-01-03T10:24:29.730Z,2.52
2019-01-03T10:27:00.103Z,3.15
2019-01-03T10:29:30.463Z,1.65
2019-01-03T10:32:00.876Z,16.23
2019-01-03T10:34:31.274Z,2.42
2019-01-03T10:37:01.675Z,3.72
2019-01-03T10:39:32.082Z,2.50
2019-01-03T10:42:02.437Z,3.80
2019-01-03T10:44:32.785Z,1.55
2019-01-03T10:47:03.154Z,3.27
2019-01-03T10:49:33.506Z,2.10
2019-01-03T10:52:03.857Z,1.60
2019-01-03T10:54:34.198Z,4.87
2019-01-03T10:57:04.577Z,2.22
2019-01-03T10:59:34.945Z,2.90
2019-01-03T11:02:05.298Z,4.50
2019-01-03T11:04:35.669Z,4.47
2019-01-03T11:07:06.039Z,6.47
2019-01-03T11:09:36.399Z,4.15
2019-01-03T11:12:06.753Z,2.83
2019-01-03T11:14:37.134Z,3.50
2019-01-03T11:17:07.471Z,4.17
2019-01-03T11:19:37.841Z,3.72
2019-01-03T11:22:08.188Z,3.85
2019-01-03T11:24:38.576Z,4.08
2019-01-03T11:27:08.941Z,3.95
2019-01-03T11:29:39.352Z,9.50
2019-01-03T11:32:09.723Z,3.83
2019-01-03T11:34:40.084Z,4.53
2019-01-03T11:37:10.446Z,3.35
2019-01-03T11:39:40.820Z,9.10
2019-01-03T11:42:11.179Z,5.10
2019-01-03T11:44:41.536Z,3.95
2019-01-03T11:47:11.884Z,6.17
2019-01-03T11:49:42.289Z,3.25
2019-01-03T11:52:12.665Z,3.17
2019-01-03T11:54:43.035Z,2.80
2019-01-03T11:57:13.398Z,4.00
2019-01-03T11:59:43.766Z,3.87
2019-01-03T12:02:14.123Z,2.60
2019-01-03T12:04:44.483Z,2.62
2019-01-03T12:07:14.849Z,6.35
2019-01-03T12:09:45.236Z,2.77
2019-01-03T12:12:15.661Z,5.45
2019-01-03T12:14:46.019Z,3.52
2019-01-03T12:17:16.397Z,3.60
2019-01-03T12:19:46.762Z,2.00
2019-01-03T12:22:17.155Z,3.30
2019-01-03T12:24:47.510Z,6.08
2019-01-03T12:27:17.860Z,3.52
2019-01-03T12:29:48.205Z,3.25
2019-01-03T12:32:18.597Z,5.30
2019-01-03T12:34:48.965Z,2.98
2019-01-03T12:37:19.344Z,1.90
2019-01-03T12:39:49.729Z,7.00
2019-01-03T12:42:20.105Z,4.60
2019-01-03T12:44:50.462Z,3.25
2019-01-03T12:47:20.842Z,3.17
2019-01-03T12:49:51.173Z,5.00
2019-01-03T12:52:21.547Z,6.92
2019-01-03T12:54:51.905Z,5.42
2019-01-03T12:57:22.310Z,4.30
2019-01-03T12:59:52.646Z,8.45
2019-01-03T13:02:22.994Z,5.67
2019-01-03T13:04:53.338Z,11.05
2019-01-03T13:07:23.746Z,8.48
2019-01-03T13:09:54.192Z,5.53
2019-01-03T13:12:24.543Z,5.55
2019-01-03T13:14:54.931Z,3.37
2019-01-03T13:17:25.304Z,3.10
2019-01-03T13:19:55.686Z,4.37
2019-01-03T13:22:26.041Z,3.67
2019-01-03T13:24:56.385Z,4.87
2019-01-03T13:27:26.747Z,4.80
2019-01-03T13:29:57.129Z,9.68
2019-01-03T13:32:27.515Z,6.45
2019-01-03T13:34:57.879Z,3.20
2019-01-03T13:37:28.251Z,9.75
2019-01-03T13:39:58.625Z,5.05
2019-01-03T13:42:28.991Z,4.75
2019-01-03T13:44:59.368Z,9.78
2019-01-03T13:47:29.727Z,6.33
2019-01-03T13:50:00.225Z,4.90
2019-01-03T13:52:30.666Z,5.50
2019-01-03T13:55:01.038Z,6.62
2019-01-03T13:57:31.397Z,7.15
2019-01-03T14:00:01.781Z,6.50
2019-01-03T14:02:32.135Z,3.95
2019-01-03T14:05:02.560Z,2.80
2019-01-03T14:07:32.932Z,9.83
2019-01-03T14:10:03.921Z,7.30
2019-01-03T14:12:34.277Z,5.72
2019-01-03T14:15:04.791Z,4.78
2019-01-03T14:17:35.153Z,7.20
2019-01-03T14:20:07.251Z,11.15
2019-01-03T14:22:37.622Z,6.90
2019-01-03T14:25:07.998Z,8.48
2019-01-03T14:27:38.365Z,15.60
2019-01-03T14:30:10.174Z,9.25
2019-01-03T14:32:40.532Z,6.95
2019-01-03T14:35:10.883Z,10.15
2019-01-03T14:37:41.298Z,16.55
2019-01-03T14:40:11.646Z,9.88
2019-01-03T14:42:42.007Z,7.85
2019-01-03T14:45:12.403Z,8.15
2019-01-03T14:47:43.305Z,10.68
2019-01-03T14:50:13.657Z,10.43
2019-01-03T14:52:44.008Z,8.13
2019-01-03T14:55:14.359Z,8.25
2019-01-03T14:57:44.755Z,12.55
2019-01-03T15:00:15.300Z,11.33
2019-01-03T15:02:45.671Z,10.75
2019-01-03T15:05:16.045Z,10.63
2019-01-03T15:07:46.407Z,11.43
2019-01-03T15:10:16.790Z,11.12
2019-01-03T15:12:47.194Z,10.65
2019-01-03T15:15:17.591Z,10.55
2019-01-03T15:17:47.946Z,14.15
2019-01-03T15:20:18.321Z,9.28
2019-01-03T15:22:48.774Z,15.48
2019-01-03T15:25:19.162Z,10.82
2019-01-03T15:27:49.521Z,12.35
2019-01-03T15:30:19.913Z,11.03
2019-01-03T15:32:50.295Z,15.13
2019-01-03T15:35:20.685Z,14.40
2019-01-03T15:37:51.064Z,11.83
2019-01-03T15:40:21.445Z,15.18
2019-01-03T15:42:51.844Z,12.25
2019-01-03T15:45:22.294Z,10.45
2019-01-03T15:47:52.674Z,11.48
2019-01-03T15:50:23.057Z,13.93
2019-01-03T15:52:53.414Z,11.05
2019-01-03T15:55:23.790Z,12.37
2019-01-03T15:57:54.174Z,11.33
2019-01-03T16:00:24.607Z,21.57
2019-01-03T16:02:54.965Z,13.05
2019-01-03T16:05:25.363Z,14.50
2019-01-03T16:07:55.782Z,14.63
2019-01-03T16:10:26.207Z,10.08
2019-01-03T16:12:57.538Z,12.60
2019-01-03T16:15:27.953Z,10.88
2019-01-03T16:17:58.353Z,10.58
2019-01-03T16:20:28.750Z,13.43
2019-01-03T16:22:59.174Z,12.60
2019-01-03T16:25:29.561Z,12.75
2019-01-03T16:27:59.941Z,9.38
2019-01-03T16:30:30.346Z,11.48
2019-01-03T16:33:00.778Z,10.55
2019-01-03T16:35:31.262Z,10.82
2019-01-03T16:38:01.633Z,12.55
2019-01-03T16:40:32.060Z,11.90
2019-01-03T16:43:02.509Z,12.23
2019-01-03T16:45:32.906Z,17.48
2019-01-03T16:48:03.297Z,15.28
2019-01-03T16:50:33.705Z,13.38
2019-01-03T16:53:04.105Z,12.93
2019-01-03T16:55:34.516Z,19.55
2019-01-03T16:58:04.933Z,18.37
2019-01-03T17:00:35.335Z,11.83
2019-01-03T17:03:05.752Z,14.23
2019-01-03T17:05:36.146Z,16.62
2019-01-03T17:08:06.581Z,19.20
2019-01-03T17:10:37.042Z,16.93
2019-01-03T17:13:07.445Z,15.50
2019-01-03T17:15:37.836Z,16.82
2019-01-03T17:18:08.307Z,11.60
2019-01-03T17:20:38.679Z,14.90
2019-01-03T17:23:09.076Z,16.77
2019-01-03T17:25:39.561Z,17.80
2019-01-03T17:28:09.991Z,19.12
2019-01-03T17:30:40.397Z,14.50
2019-01-03T17:33:10.814Z,18.15
2019-01-03T17:35:41.236Z,15.98
2019-01-03T17:38:11.639Z,13.00
2019-01-03T17:40:42.048Z,20.12
2019-01-03T17:43:12.543Z,14.10
2019-01-03T17:45:42.920Z,18.37
2019-01-03T17:48:13.332Z,18.07
2019-01-03T17:50:43.788Z,18.35
2019-01-03T17:53:15.212Z,15.70
2019-01-03T17:55:45.611Z,17.20
2019-01-03T17:58:16.017Z,20.60
2019-01-03T18:00:47.646Z,18.75
2019-01-03T18:03:18.121Z,17.20
2019-01-03T18:05:48.558Z,15.15
2019-01-03T18:08:19.188Z,20.95
2019-01-03T18:10:49.645Z,21.37
2019-01-03T18:13:20.117Z,21.20
2019-01-03T18:15:50.518Z,21.17
2019-01-03T18:18:20.933Z,22.37
2019-01-03T18:20:51.433Z,18.07
2019-01-03T18:23:21.850Z,19.65
2019-01-03T18:25:52.302Z,18.07
2019-01-03T18:28:22.778Z,22.32
2019-01-03T18:30:53.226Z,19.30
2019-01-03T18:33:23.666Z,19.25
2019-01-03T18:35:54.067Z,23.70
2019-01-03T18:38:24.485Z,17.90
2019-01-03T18:40:54.914Z,21.00
2019-01-03T18:43:25.557Z,19.30
2019-01-03T18:45:55.965Z,22.13
2019-01-03T18:48:26.398Z,22.13
2019-01-03T18:50:56.863Z,23.42
2019-01-03T18:53:27.252Z,22.93
2019-01-03T18:55:58.263Z,20.30
2019-01-03T18:58:28.691Z,24.43
2019-01-03T19:00:59.132Z,18.05
2019-01-03T19:03:30.517Z,25.65
2019-01-03T19:06:00.953Z,20.68
2019-01-03T19:08:31.423Z,23.95
2019-01-03T19:11:01.870Z,22.80
2019-01-03T19:13:32.346Z,23.90
2019-01-03T19:16:02.781Z,24.37
2019-01-03T19:18:33.206Z,24.70
2019-01-03T19:21:03.581Z,17.95
2019-01-03T19:23:34.063Z,24.20
2019-01-03T19:26:04.573Z,29.15
2019-01-03T19:28:35.092Z,27.55
2019-01-03T19:31:05.526Z,27.93
2019-01-03T19:33:35.939Z,29.67
2019-01-03T19:36:06.373Z,31.25
2019-01-03T19:38:36.802Z,22.27
2019-01-03T19:41:07.211Z,28.07
2019-01-03T19:43:37.672Z,28.32
2019-01-03T19:46:08.156Z,27.70
2019-01-03T19:48:38.599Z,23.70
2019-01-03T19:51:09.041Z,20.90
2019-01-03T19:53:39.537Z,24.10
2019-01-03T19:56:09.951Z,31.68
2019-01-03T19:58:40.444Z,21.25
2019-01-03T20:01:10.873Z,36.25
2019-01-03T20:03:41.354Z,22.85
2019-01-03T20:06:12.186Z,22.93
2019-01-03T20:08:42.676Z,25.95
2019-01-03T20:11:13.104Z,28.23
2019-01-03T20:13:43.514Z,24.80
2019-01-03T20:16:13.969Z,24.43
2019-01-03T20:18:44.380Z,23.18
2019-01-03T20:21:14.829Z,24.15
2019-01-03T20:23:48.370Z,23.30
2019-01-03T20:26:18.975Z,26.60
2019-01-03T20:28:49.817Z,23.10
2019-01-03T20:31:20.226Z,21.75
2019-01-03T20:33:50.683Z,24.25
2019-01-03T20:36:21.175Z,17.30
2019-01-03T20:38:51.702Z,18.75
2019-01-03T20:41:22.122Z,21.87
2019-01-03T20:43:52.582Z,21.55
2019-01-03T20:46:23.041Z,20.08
2019-01-03T20:48:53.526Z,16.65
2019-01-03T20:51:23.957Z,18.00
2019-01-03T20:53:54.385Z,16.42
2019-01-03T20:56:24.830Z,16.45
2019-01-03T20:58:55.344Z,13.95
2019-01-03T21:01:25.821Z,17.00
2019-01-03T21:03:56.332Z,11.85
2019-01-03T21:06:26.892Z,13.90
2019-01-03T21:08:57.291Z,17.62
2019-01-03T21:11:27.762Z,18.23
2019-01-03T21:13:59.051Z,13.93
2019-01-03T21:16:29.564Z,19.50
2019-01-03T21:19:00.090Z,16.02
2019-01-03T21:21:30.525Z,12.82
2019-01-03T21:24:01.065Z,19.80
2019-01-03T21:26:31.504Z,17.52
2019-01-03T21:29:02.667Z,14.40
2019-01-03T21:31:33.383Z,20.62
2019-01-03T21:34:03.863Z,22.62
2019-01-03T21:36:34.268Z,14.47
2019-01-03T21:39:05.420Z,20.82
2019-01-03T21:41:35.923Z,20.37
2019-01-03T21:44:06.357Z,17.65
2019-01-03T21:46:36.835Z,18.02
2019-01-03T21:49:07.271Z,30.70
2019-01-03T21:51:37.732Z,37.45
2019-01-03T21:54:08.149Z,27.48
2019-01-03T21:56:38.569Z,21.80
2019-01-03T21:59:08.998Z,18.98
2019-01-03T22:01:39.406Z,17.15
2019-01-03T22:04:09.911Z,16.82
2019-01-03T22:06:40.332Z,18.02
2019-01-03T22:09:10.785Z,19.95
2019-01-03T22:11:41.159Z,18.67
2019-01-03T22:14:11.586Z,16.82
2019-01-03T22:16:42.010Z,14.43
2019-01-03T22:19:12.486Z,18.25
2019-01-03T22:21:43.734Z,21.07
2019-01-03T22:24:14.145Z,21.30
2019-01-03T22:26:44.670Z,17.40
2019-01-03T22:29:15.145Z,24.80
2019-01-03T22:31:45.515Z,20.90
2019-01-03T22:34:15.957Z,24.87
2019-01-03T22:36:46.329Z,20.75
2019-01-03T22:39:16.763Z,21.05
2019-01-03T22:41:47.190Z,15.53
2019-01-03T22:44:17.650Z,17.32
2019-01-03T22:46:48.033Z,23.83
2019-01-03T22:49:18.462Z,21.65
2019-01-03T22:51:48.860Z,18.57
2019-01-03T22:54:19.268Z,23.05
2019-01-03T22:56:49.963Z,24.52
2019-01-03T22:59:20.331Z,22.65
2019-01-03T23:01:50.830Z,24.52
2019-01-03T23:04:21.222Z,18.23
2019-01-03T23:06:51.686Z,19.98
2019-01-03T23:09:22.107Z,20.95
2019-01-03T23:11:52.514Z,16.17
2019-01-03T23:14:23.730Z,23.07
2019-01-03T23:16:54.184Z,20.60
2019-01-03T23:19:24.817Z,21.77
2019-01-03T23:21:55.257Z,20.57
2019-01-03T23:24:25.653Z,21.35
2019-01-03T23:26:56.053Z,20.55
2019-01-03T23:29:26.446Z,19.62
2019-01-03T23:31:56.909Z,22.13
2019-01-03T23:34:28.247Z,21.73
2019-01-03T23:36:58.999Z,26.17
2019-01-03T23:39:29.390Z,18.90
2019-01-03T23:41:59.785Z,22.35
2019-01-03T23:44:30.197Z,18.23
2019-01-03T23:47:00.597Z,19.90
2019-01-03T23:49:31.186Z,19.30
2019-01-03T23:52:01.571Z,25.45
2019-01-03T23:54:31.981Z,19.57
2019-01-03T23:57:02.393Z,23.40
2019-01-03T23:59:32.775Z,17.92
